sensor_id;sensor_type;location;lat;lon;timestamp;temperature;humidity
49679;DHT22;35570;48.218;16.326;2023-11-19T00:00:37;5.10;94.80
49679;DHT22;35570;48.218;16.326;2023-11-19T00:03:03;4.90;94.50
49679;DHT22;35570;48.218;16.326;2023-11-19T00:05:29;4.90;94.70
49679;DHT22;35570;48.218;16.326;2023-11-19T00:07:55;4.90;94.80
49679;DHT22;35570;48.218;16.326;2023-11-19T00:10:21;4.90;94.80
49679;DHT22;35570;48.218;16.326;2023-11-19T00:12:48;3.80;94.60
49679;DHT22;35570;48.218;16.326;2023-11-19T00:15:15;5.00;95.20
49679;DHT22;35570;48.218;16.326;2023-11-19T00:17:42;5.00;95.40
49679;DHT22;35570;48.218;16.326;2023-11-19T00:20:12;5.00;95.50
49679;DHT22;35570;48.218;16.326;2023-11-19T00:22:38;5.00;95.50
49679;DHT22;35570;48.218;16.326;2023-11-19T00:27:39;5.00;95.70
49679;DHT22;35570;48.218;16.326;2023-11-19T00:30:06;5.10;96.00
49679;DHT22;35570;48.218;16.326;2023-11-19T00:32:32;5.10;96.20
49679;DHT22;35570;48.218;16.326;2023-11-19T00:34:58;5.00;96.20
49679;DHT22;35570;48.218;16.326;2023-11-19T00:37:24;5.00;96.40
49679;DHT22;35570;48.218;16.326;2023-11-19T00:39:50;5.00;96.60
49679;DHT22;35570;48.218;16.326;2023-11-19T00:42:17;4.80;96.40
49679;DHT22;35570;48.218;16.326;2023-11-19T00:44:43;5.10;96.00
49679;DHT22;35570;48.218;16.326;2023-11-19T00:47:09;4.10;94.70
49679;DHT22;35570;48.218;16.326;2023-11-19T00:49:35;5.60;95.00
49679;DHT22;35570;48.218;16.326;2023-11-19T00:52:01;4.90;94.20
49679;DHT22;35570;48.218;16.326;2023-11-19T00:54:27;4.80;94.10
49679;DHT22;35570;48.218;16.326;2023-11-19T00:56:53;4.80;94.70
49679;DHT22;35570;48.218;16.326;2023-11-19T00:59:19;4.80;94.90
49679;DHT22;35570;48.218;16.326;2023-11-19T01:01:45;4.70;95.00
49679;DHT22;35570;48.218;16.326;2023-11-19T01:04:14;4.70;95.30
49679;DHT22;35570;48.218;16.326;2023-11-19T01:06:40;4.60;95.70
49679;DHT22;35570;48.218;16.326;2023-11-19T01:09:08;4.40;96.20
49679;DHT22;35570;48.218;16.326;2023-11-19T01:11:35;4.30;96.70
49679;DHT22;35570;48.218;16.326;2023-11-19T01:14:01;4.40;96.90
49679;DHT22;35570;48.218;16.326;2023-11-19T01:16:27;4.30;97.20
49679;DHT22;35570;48.218;16.326;2023-11-19T01:18:53;4.50;97.30
49679;DHT22;35570;48.218;16.326;2023-11-19T01:21:19;4.50;97.30
49679;DHT22;35570;48.218;16.326;2023-11-19T01:23:45;4.50;97.00
49679;DHT22;35570;48.218;16.326;2023-11-19T01:26:12;4.60;97.00
49679;DHT22;35570;48.218;16.326;2023-11-19T01:28:38;4.60;96.50
49679;DHT22;35570;48.218;16.326;2023-11-19T01:31:15;4.70;97.00
49679;DHT22;35570;48.218;16.326;2023-11-19T01:33:40;4.60;96.60
49679;DHT22;35570;48.218;16.326;2023-11-19T01:41:17;4.50;96.40
49679;DHT22;35570;48.218;16.326;2023-11-19T01:59:10;4.30;97.60
49679;DHT22;35570;48.218;16.326;2023-11-19T02:22:19;4.20;97.70
49679;DHT22;35570;48.218;16.326;2023-11-19T02:24:47;4.20;97.80
49679;DHT22;35570;48.218;16.326;2023-11-19T03:32:39;3.60;99.90
49679;DHT22;35570;48.218;16.326;2023-11-19T03:35:08;4.10;99.90
49679;DHT22;35570;48.218;16.326;2023-11-19T04:00:42;3.90;99.90
49679;DHT22;35570;48.218;16.326;2023-11-19T04:08:19;4.10;99.90
49679;DHT22;35570;48.218;16.326;2023-11-19T04:10:45;4.10;99.90
49679;DHT22;35570;48.218;16.326;2023-11-19T04:13:11;4.10;99.90
49679;DHT22;35570;48.218;16.326;2023-11-19T04:15:36;4.10;99.90
49679;DHT22;35570;48.218;16.326;2023-11-19T04:25:48;4.10;99.90
49679;DHT22;35570;48.218;16.326;2023-11-19T04:33:25;4.10;99.90
49679;DHT22;35570;48.218;16.326;2023-11-19T04:35:51;4.10;99.90
49679;DHT22;35570;48.218;16.326;2023-11-19T04:38:17;2.30;99.90
49679;DHT22;35570;48.218;16.326;2023-11-19T04:40:43;4.10;99.90
49679;DHT22;35570;48.218;16.326;2023-11-19T04:45:44;4.20;99.90
49679;DHT22;35570;48.218;16.326;2023-11-19T04:48:10;4.20;99.90
49679;DHT22;35570;48.218;16.326;2023-11-19T04:50:38;4.10;99.90
49679;DHT22;35570;48.218;16.326;2023-11-19T04:55:39;4.30;99.90
49679;DHT22;35570;48.218;16.326;2023-11-19T04:58:05;4.00;99.90
49679;DHT22;35570;48.218;16.326;2023-11-19T05:00:31;4.30;99.90
49679;DHT22;35570;48.218;16.326;2023-11-19T05:02:56;5.20;99.90
49679;DHT22;35570;48.218;16.326;2023-11-19T05:05:22;4.70;99.90
49679;DHT22;35570;48.218;16.326;2023-11-19T05:10:24;4.30;99.90
49679;DHT22;35570;48.218;16.326;2023-11-19T05:12:50;4.30;99.90
49679;DHT22;35570;48.218;16.326;2023-11-19T05:15:17;4.20;99.90
49679;DHT22;35570;48.218;16.326;2023-11-19T05:20:18;4.30;99.90
49679;DHT22;35570;48.218;16.326;2023-11-19T05:30:30;4.30;99.90
49679;DHT22;35570;48.218;16.326;2023-11-19T05:38:07;4.20;99.90
49679;DHT22;35570;48.218;16.326;2023-11-19T05:40:32;4.20;99.90
49679;DHT22;35570;48.218;16.326;2023-11-19T05:42:58;4.30;99.90
49679;DHT22;35570;48.218;16.326;2023-11-19T05:45:25;4.40;99.90
49679;DHT22;35570;48.218;16.326;2023-11-19T05:47:51;4.40;99.90
49679;DHT22;35570;48.218;16.326;2023-11-19T05:58:04;4.30;99.90
49679;DHT22;35570;48.218;16.326;2023-11-19T06:00:32;4.30;99.90
49679;DHT22;35570;48.218;16.326;2023-11-19T06:02:57;4.20;99.90
49679;DHT22;35570;48.218;16.326;2023-11-19T06:05:23;4.20;99.90
49679;DHT22;35570;48.218;16.326;2023-11-19T06:07:49;5.20;99.90
49679;DHT22;35570;48.218;16.326;2023-11-19T06:15:27;4.00;99.90
49679;DHT22;35570;48.218;16.326;2023-11-19T06:17:53;3.90;99.90
49679;DHT22;35570;48.218;16.326;2023-11-19T06:20:20;4.00;99.90
49679;DHT22;35570;48.218;16.326;2023-11-19T06:22:46;3.40;99.90
49679;DHT22;35570;48.218;16.326;2023-11-19T06:25:12;5.60;99.90
49679;DHT22;35570;48.218;16.326;2023-11-19T06:27:40;4.00;99.90
49679;DHT22;35570;48.218;16.326;2023-11-19T06:30:07;3.90;99.90
49679;DHT22;35570;48.218;16.326;2023-11-19T06:32:33;4.00;99.90
49679;DHT22;35570;48.218;16.326;2023-11-19T06:34:59;4.00;99.90
49679;DHT22;35570;48.218;16.326;2023-11-19T06:37:24;4.40;99.90
49679;DHT22;35570;48.218;16.326;2023-11-19T06:39:51;4.00;99.90
49679;DHT22;35570;48.218;16.326;2023-11-19T06:42:16;4.70;99.90
49679;DHT22;35570;48.218;16.326;2023-11-19T06:44:42;5.30;99.90
49679;DHT22;35570;48.218;16.326;2023-11-19T06:47:08;4.70;99.90
49679;DHT22;35570;48.218;16.326;2023-11-19T06:49:34;4.10;99.90
49679;DHT22;35570;48.218;16.326;2023-11-19T06:52:00;4.20;99.90
49679;DHT22;35570;48.218;16.326;2023-11-19T06:54:26;4.20;99.90
49679;DHT22;35570;48.218;16.326;2023-11-19T06:56:52;4.30;99.90
49679;DHT22;35570;48.218;16.326;2023-11-19T06:59:18;4.30;99.90
49679;DHT22;35570;48.218;16.326;2023-11-19T07:01:46;4.30;99.90
49679;DHT22;35570;48.218;16.326;2023-11-19T07:04:12;4.40;99.90
49679;DHT22;35570;48.218;16.326;2023-11-19T07:06:38;4.40;99.90
49679;DHT22;35570;48.218;16.326;2023-11-19T07:14:17;4.20;99.90
49679;DHT22;35570;48.218;16.326;2023-11-19T07:16:44;4.20;99.90
49679;DHT22;35570;48.218;16.326;2023-11-19T07:19:11;4.80;99.90
49679;DHT22;35570;48.218;16.326;2023-11-19T07:21:40;4.20;99.90
49679;DHT22;35570;48.218;16.326;2023-11-19T07:24:09;4.10;99.90
49679;DHT22;35570;48.218;16.326;2023-11-19T07:26:36;3.80;99.90
49679;DHT22;35570;48.218;16.326;2023-11-19T07:29:03;4.40;99.90
49679;DHT22;35570;48.218;16.326;2023-11-19T07:31:28;4.00;99.90
49679;DHT22;35570;48.218;16.326;2023-11-19T07:39:11;4.00;99.90
49679;DHT22;35570;48.218;16.326;2023-11-19T07:41:38;4.00;99.90
49679;DHT22;35570;48.218;16.326;2023-11-19T07:44:04;4.00;99.90
49679;DHT22;35570;48.218;16.326;2023-11-19T07:46:30;4.00;99.90
49679;DHT22;35570;48.218;16.326;2023-11-19T07:48:59;5.40;99.90
49679;DHT22;35570;48.218;16.326;2023-11-19T07:51:25;4.20;99.90
49679;DHT22;35570;48.218;16.326;2023-11-19T07:53:51;4.10;99.90
49679;DHT22;35570;48.218;16.326;2023-11-19T07:56:16;5.30;99.90
49679;DHT22;35570;48.218;16.326;2023-11-19T07:58:42;4.20;99.90
49679;DHT22;35570;48.218;16.326;2023-11-19T08:01:09;4.30;99.90
49679;DHT22;35570;48.218;16.326;2023-11-19T08:03:35;5.00;99.90
49679;DHT22;35570;48.218;16.326;2023-11-19T08:06:01;4.40;99.90
49679;DHT22;35570;48.218;16.326;2023-11-19T08:08:27;3.80;99.90
49679;DHT22;35570;48.218;16.326;2023-11-19T08:10:56;4.60;99.90
49679;DHT22;35570;48.218;16.326;2023-11-19T08:13:25;4.50;99.90
49679;DHT22;35570;48.218;16.326;2023-11-19T08:15:51;4.70;99.90
49679;DHT22;35570;48.218;16.326;2023-11-19T08:18:17;4.80;99.90
49679;DHT22;35570;48.218;16.326;2023-11-19T08:20:44;4.80;99.90
49679;DHT22;35570;48.218;16.326;2023-11-19T08:23:10;4.90;99.90
49679;DHT22;35570;48.218;16.326;2023-11-19T08:25:36;4.10;99.90
49679;DHT22;35570;48.218;16.326;2023-11-19T08:28:02;4.90;99.90
49679;DHT22;35570;48.218;16.326;2023-11-19T08:30:29;4.90;99.90
49679;DHT22;35570;48.218;16.326;2023-11-19T08:32:55;4.80;99.90
49679;DHT22;35570;48.218;16.326;2023-11-19T08:35:21;3.00;99.90
49679;DHT22;35570;48.218;16.326;2023-11-19T08:37:49;4.80;99.90
49679;DHT22;35570;48.218;16.326;2023-11-19T08:40:15;4.80;99.90
49679;DHT22;35570;48.218;16.326;2023-11-19T08:42:41;4.90;99.90
49679;DHT22;35570;48.218;16.326;2023-11-19T08:45:07;5.40;99.90
49679;DHT22;35570;48.218;16.326;2023-11-19T08:47:36;4.90;99.90
49679;DHT22;35570;48.218;16.326;2023-11-19T08:50:02;5.00;99.90
49679;DHT22;35570;48.218;16.326;2023-11-19T08:52:29;5.00;99.90
49679;DHT22;35570;48.218;16.326;2023-11-19T08:54:55;4.80;99.90
49679;DHT22;35570;48.218;16.326;2023-11-19T08:57:21;4.80;99.90
49679;DHT22;35570;48.218;16.326;2023-11-19T09:02:22;4.90;99.90
49679;DHT22;35570;48.218;16.326;2023-11-19T09:07:24;5.00;99.90
49679;DHT22;35570;48.218;16.326;2023-11-19T09:09:49;5.10;99.90
49679;DHT22;35570;48.218;16.326;2023-11-19T09:12:15;4.90;99.90
49679;DHT22;35570;48.218;16.326;2023-11-19T09:19:48;5.40;99.90
49679;DHT22;35570;48.218;16.326;2023-11-19T09:22:14;5.40;99.90
49679;DHT22;35570;48.218;16.326;2023-11-19T09:27:15;5.60;99.90
49679;DHT22;35570;48.218;16.326;2023-11-19T09:29:41;5.50;99.90
49679;DHT22;35570;48.218;16.326;2023-11-19T09:34:43;5.40;99.90
49679;DHT22;35570;48.218;16.326;2023-11-19T09:39:45;5.50;99.90
49679;DHT22;35570;48.218;16.326;2023-11-19T09:42:15;6.30;99.90
49679;DHT22;35570;48.218;16.326;2023-11-19T09:44:43;5.70;99.90
49679;DHT22;35570;48.218;16.326;2023-11-19T09:47:11;5.80;99.90
49679;DHT22;35570;48.218;16.326;2023-11-19T09:49:37;5.80;99.90
49679;DHT22;35570;48.218;16.326;2023-11-19T09:52:03;5.70;99.90
49679;DHT22;35570;48.218;16.326;2023-11-19T09:54:29;5.70;99.90
49679;DHT22;35570;48.218;16.326;2023-11-19T09:56:57;5.80;99.90
49679;DHT22;35570;48.218;16.326;2023-11-19T09:59:29;7.60;99.90
49679;DHT22;35570;48.218;16.326;2023-11-19T10:01:56;6.10;99.90
49679;DHT22;35570;48.218;16.326;2023-11-19T10:04:22;5.90;99.90
49679;DHT22;35570;48.218;16.326;2023-11-19T10:06:50;6.00;99.90
49679;DHT22;35570;48.218;16.326;2023-11-19T10:09:16;5.90;99.90
49679;DHT22;35570;48.218;16.326;2023-11-19T10:11:42;6.10;99.90
49679;DHT22;35570;48.218;16.326;2023-11-19T10:14:09;6.10;99.90
49679;DHT22;35570;48.218;16.326;2023-11-19T10:16:35;6.20;99.90
49679;DHT22;35570;48.218;16.326;2023-11-19T10:19:01;6.10;99.90
49679;DHT22;35570;48.218;16.326;2023-11-19T10:21:27;6.40;99.90
49679;DHT22;35570;48.218;16.326;2023-11-19T10:23:57;5.90;99.90
49679;DHT22;35570;48.218;16.326;2023-11-19T10:26:26;6.00;99.90
49679;DHT22;35570;48.218;16.326;2023-11-19T10:28:52;6.00;99.90
49679;DHT22;35570;48.218;16.326;2023-11-19T10:31:20;5.80;99.90
49679;DHT22;35570;48.218;16.326;2023-11-19T10:33:55;5.80;99.90
49679;DHT22;35570;48.218;16.326;2023-11-19T10:36:21;5.70;99.90
49679;DHT22;35570;48.218;16.326;2023-11-19T10:38:56;5.60;99.90
49679;DHT22;35570;48.218;16.326;2023-11-19T10:41:32;5.60;99.90
49679;DHT22;35570;48.218;16.326;2023-11-19T10:44:01;5.70;99.90
49679;DHT22;35570;48.218;16.326;2023-11-19T10:46:41;5.80;99.90
49679;DHT22;35570;48.218;16.326;2023-11-19T10:49:08;5.90;99.90
49679;DHT22;35570;48.218;16.326;2023-11-19T10:51:34;6.00;99.90
49679;DHT22;35570;48.218;16.326;2023-11-19T10:54:04;6.10;99.90
49679;DHT22;35570;48.218;16.326;2023-11-19T10:56:34;6.20;99.90
49679;DHT22;35570;48.218;16.326;2023-11-19T10:59:01;6.20;99.90
49679;DHT22;35570;48.218;16.326;2023-11-19T11:01:35;6.30;99.90
49679;DHT22;35570;48.218;16.326;2023-11-19T11:04:03;6.40;99.90
49679;DHT22;35570;48.218;16.326;2023-11-19T11:06:30;6.30;99.90
49679;DHT22;35570;48.218;16.326;2023-11-19T11:08:56;6.30;99.90
49679;DHT22;35570;48.218;16.326;2023-11-19T11:11:23;5.80;99.90
49679;DHT22;35570;48.218;16.326;2023-11-19T11:13:50;6.20;99.90
49679;DHT22;35570;48.218;16.326;2023-11-19T11:16:19;6.30;99.90
49679;DHT22;35570;48.218;16.326;2023-11-19T11:18:47;6.40;99.90
49679;DHT22;35570;48.218;16.326;2023-11-19T11:21:21;6.70;99.90
49679;DHT22;35570;48.218;16.326;2023-11-19T11:32:35;6.60;99.90
49679;DHT22;35570;48.218;16.326;2023-11-19T11:38:08;6.40;99.90
49679;DHT22;35570;48.218;16.326;2023-11-19T11:40:34;6.60;99.90
49679;DHT22;35570;48.218;16.326;2023-11-19T11:43:02;6.40;99.90
49679;DHT22;35570;48.218;16.326;2023-11-19T11:45:54;6.50;99.90
49679;DHT22;35570;48.218;16.326;2023-11-19T11:48:21;6.40;99.90
49679;DHT22;35570;48.218;16.326;2023-11-19T11:50:52;6.40;99.90
49679;DHT22;35570;48.218;16.326;2023-11-19T11:53:20;6.40;99.90
49679;DHT22;35570;48.218;16.326;2023-11-19T11:58:20;6.40;99.90
49679;DHT22;35570;48.218;16.326;2023-11-19T12:00:47;6.40;99.90
49679;DHT22;35570;48.218;16.326;2023-11-19T12:03:14;6.40;99.90
49679;DHT22;35570;48.218;16.326;2023-11-19T12:05:45;6.50;99.90
49679;DHT22;35570;48.218;16.326;2023-11-19T12:08:12;6.40;99.90
49679;DHT22;35570;48.218;16.326;2023-11-19T12:10:51;6.50;99.90
49679;DHT22;35570;48.218;16.326;2023-11-19T12:13:19;6.60;99.90
49679;DHT22;35570;48.218;16.326;2023-11-19T12:18:28;6.90;99.90
49679;DHT22;35570;48.218;16.326;2023-11-19T12:20:55;6.80;99.90
49679;DHT22;35570;48.218;16.326;2023-11-19T12:23:25;6.80;99.90
49679;DHT22;35570;48.218;16.326;2023-11-19T12:25:51;6.80;99.90
49679;DHT22;35570;48.218;16.326;2023-11-19T12:28:18;6.80;99.90
49679;DHT22;35570;48.218;16.326;2023-11-19T12:30:44;6.80;99.90
49679;DHT22;35570;48.218;16.326;2023-11-19T12:33:14;6.70;99.90
49679;DHT22;35570;48.218;16.326;2023-11-19T12:35:44;6.80;99.90
49679;DHT22;35570;48.218;16.326;2023-11-19T12:38:23;6.60;99.90
49679;DHT22;35570;48.218;16.326;2023-11-19T12:41:07;6.60;99.90
49679;DHT22;35570;48.218;16.326;2023-11-19T12:43:33;6.50;99.90
49679;DHT22;35570;48.218;16.326;2023-11-19T12:46:02;6.30;99.90
49679;DHT22;35570;48.218;16.326;2023-11-19T12:48:28;6.40;99.90
49679;DHT22;35570;48.218;16.326;2023-11-19T12:50:55;6.40;99.90
49679;DHT22;35570;48.218;16.326;2023-11-19T12:53:25;6.40;99.90
49679;DHT22;35570;48.218;16.326;2023-11-19T12:55:52;6.40;99.90
49679;DHT22;35570;48.218;16.326;2023-11-19T12:58:30;6.40;99.90
49679;DHT22;35570;48.218;16.326;2023-11-19T13:01:03;6.30;99.90
49679;DHT22;35570;48.218;16.326;2023-11-19T13:03:37;6.20;99.90
49679;DHT22;35570;48.218;16.326;2023-11-19T13:06:11;6.30;99.90
49679;DHT22;35570;48.218;16.326;2023-11-19T13:08:40;6.30;99.90
49679;DHT22;35570;48.218;16.326;2023-11-19T13:11:07;6.30;99.90
49679;DHT22;35570;48.218;16.326;2023-11-19T13:13:55;6.30;99.90
49679;DHT22;35570;48.218;16.326;2023-11-19T13:16:22;6.40;99.90
49679;DHT22;35570;48.218;16.326;2023-11-19T13:18:48;6.40;99.90
49679;DHT22;35570;48.218;16.326;2023-11-19T13:21:13;6.40;99.90
49679;DHT22;35570;48.218;16.326;2023-11-19T13:23:39;6.60;99.90
49679;DHT22;35570;48.218;16.326;2023-11-19T13:26:05;6.30;99.90
49679;DHT22;35570;48.218;16.326;2023-11-19T13:28:32;5.60;99.90
49679;DHT22;35570;48.218;16.326;2023-11-19T13:30:57;6.70;99.90
49679;DHT22;35570;48.218;16.326;2023-11-19T13:33:23;6.70;99.90
49679;DHT22;35570;48.218;16.326;2023-11-19T13:35:49;6.70;99.90
49679;DHT22;35570;48.218;16.326;2023-11-19T13:38:15;5.80;99.90
49679;DHT22;35570;48.218;16.326;2023-11-19T13:40:41;6.70;99.90
49679;DHT22;35570;48.218;16.326;2023-11-19T13:43:07;6.60;99.90
49679;DHT22;35570;48.218;16.326;2023-11-19T13:45:33;5.20;99.90
49679;DHT22;35570;48.218;16.326;2023-11-19T13:47:59;7.50;99.90
49679;DHT22;35570;48.218;16.326;2023-11-19T13:50:24;7.60;99.90
49679;DHT22;35570;48.218;16.326;2023-11-19T13:52:51;8.40;99.90
49679;DHT22;35570;48.218;16.326;2023-11-19T13:55:17;8.50;99.90
49679;DHT22;35570;48.218;16.326;2023-11-19T13:57:43;8.70;99.90
49679;DHT22;35570;48.218;16.326;2023-11-19T14:00:12;8.80;99.90
49679;DHT22;35570;48.218;16.326;2023-11-19T14:02:41;8.80;99.90
49679;DHT22;35570;48.218;16.326;2023-11-19T14:05:07;8.20;99.90
49679;DHT22;35570;48.218;16.326;2023-11-19T14:07:33;8.60;99.90
49679;DHT22;35570;48.218;16.326;2023-11-19T14:09:59;6.90;99.90
49679;DHT22;35570;48.218;16.326;2023-11-19T14:12:24;8.30;99.90
49679;DHT22;35570;48.218;16.326;2023-11-19T14:14:50;8.30;99.90
49679;DHT22;35570;48.218;16.326;2023-11-19T14:17:16;8.10;99.90
49679;DHT22;35570;48.218;16.326;2023-11-19T14:19:44;8.00;99.90
49679;DHT22;35570;48.218;16.326;2023-11-19T14:22:10;7.90;99.90
49679;DHT22;35570;48.218;16.326;2023-11-19T14:24:37;7.70;99.90
49679;DHT22;35570;48.218;16.326;2023-11-19T14:27:03;7.30;99.90
49679;DHT22;35570;48.218;16.326;2023-11-19T14:29:29;7.40;99.90
49679;DHT22;35570;48.218;16.326;2023-11-19T14:31:56;7.30;99.90
49679;DHT22;35570;48.218;16.326;2023-11-19T14:34:22;7.20;99.90
49679;DHT22;35570;48.218;16.326;2023-11-19T14:36:48;7.10;99.90
49679;DHT22;35570;48.218;16.326;2023-11-19T14:39:15;6.50;99.90
49679;DHT22;35570;48.218;16.326;2023-11-19T14:41:44;6.90;99.90
49679;DHT22;35570;48.218;16.326;2023-11-19T14:44:10;7.00;99.90
49679;DHT22;35570;48.218;16.326;2023-11-19T14:46:38;6.90;99.90
49679;DHT22;35570;48.218;16.326;2023-11-19T14:49:04;6.90;99.90
49679;DHT22;35570;48.218;16.326;2023-11-19T14:51:35;7.00;99.90
49679;DHT22;35570;48.218;16.326;2023-11-19T14:54:02;6.90;99.90
49679;DHT22;35570;48.218;16.326;2023-11-19T14:56:28;6.90;99.90
49679;DHT22;35570;48.218;16.326;2023-11-19T14:58:54;6.90;99.90
49679;DHT22;35570;48.218;16.326;2023-11-19T15:01:20;6.90;99.90
49679;DHT22;35570;48.218;16.326;2023-11-19T15:03:46;7.00;99.90
49679;DHT22;35570;48.218;16.326;2023-11-19T15:06:12;6.90;99.90
49679;DHT22;35570;48.218;16.326;2023-11-19T15:08:38;6.90;99.90
49679;DHT22;35570;48.218;16.326;2023-11-19T15:11:05;6.90;99.90
49679;DHT22;35570;48.218;16.326;2023-11-19T15:13:32;6.90;99.90
49679;DHT22;35570;48.218;16.326;2023-11-19T15:15:58;6.90;99.90
49679;DHT22;35570;48.218;16.326;2023-11-19T15:18:24;7.00;99.90
49679;DHT22;35570;48.218;16.326;2023-11-19T15:20:50;7.00;99.90
49679;DHT22;35570;48.218;16.326;2023-11-19T15:23:16;6.80;99.90
49679;DHT22;35570;48.218;16.326;2023-11-19T15:25:42;7.00;99.90
49679;DHT22;35570;48.218;16.326;2023-11-19T15:28:08;6.90;99.90
49679;DHT22;35570;48.218;16.326;2023-11-19T15:30:35;6.60;99.90
49679;DHT22;35570;48.218;16.326;2023-11-19T15:33:01;5.60;99.90
49679;DHT22;35570;48.218;16.326;2023-11-19T15:35:27;6.70;99.90
49679;DHT22;35570;48.218;16.326;2023-11-19T15:37:53;6.70;99.90
49679;DHT22;35570;48.218;16.326;2023-11-19T15:40:19;6.60;99.90
49679;DHT22;35570;48.218;16.326;2023-11-19T15:42:46;6.60;99.90
49679;DHT22;35570;48.218;16.326;2023-11-19T15:45:12;6.60;99.90
49679;DHT22;35570;48.218;16.326;2023-11-19T15:47:38;6.50;99.90
49679;DHT22;35570;48.218;16.326;2023-11-19T15:50:05;6.50;99.90
49679;DHT22;35570;48.218;16.326;2023-11-19T15:52:32;6.50;99.90
49679;DHT22;35570;48.218;16.326;2023-11-19T15:54:58;6.40;99.90
49679;DHT22;35570;48.218;16.326;2023-11-19T15:57:24;6.40;99.90
49679;DHT22;35570;48.218;16.326;2023-11-19T15:59:50;6.30;99.90
49679;DHT22;35570;48.218;16.326;2023-11-19T16:02:17;6.30;99.90
49679;DHT22;35570;48.218;16.326;2023-11-19T16:04:43;6.40;99.90
49679;DHT22;35570;48.218;16.326;2023-11-19T16:07:13;6.40;99.90
49679;DHT22;35570;48.218;16.326;2023-11-19T16:09:40;6.40;99.90
49679;DHT22;35570;48.218;16.326;2023-11-19T16:12:07;6.30;99.90
49679;DHT22;35570;48.218;16.326;2023-11-19T16:14:34;6.30;99.90
49679;DHT22;35570;48.218;16.326;2023-11-19T16:17:00;6.60;99.90
49679;DHT22;35570;48.218;16.326;2023-11-19T16:19:26;6.20;99.90
49679;DHT22;35570;48.218;16.326;2023-11-19T16:21:52;6.30;99.90
49679;DHT22;35570;48.218;16.326;2023-11-19T16:24:18;6.30;99.90
49679;DHT22;35570;48.218;16.326;2023-11-19T16:26:45;6.30;99.90
49679;DHT22;35570;48.218;16.326;2023-11-19T16:29:11;6.30;99.90
49679;DHT22;35570;48.218;16.326;2023-11-19T16:31:37;6.30;99.90
49679;DHT22;35570;48.218;16.326;2023-11-19T16:34:04;6.30;99.90
49679;DHT22;35570;48.218;16.326;2023-11-19T16:36:32;6.30;99.90
49679;DHT22;35570;48.218;16.326;2023-11-19T16:39:02;6.30;99.90
49679;DHT22;35570;48.218;16.326;2023-11-19T16:41:27;6.20;99.90
49679;DHT22;35570;48.218;16.326;2023-11-19T16:43:53;6.30;99.90
49679;DHT22;35570;48.218;16.326;2023-11-19T16:46:21;7.20;99.90
49679;DHT22;35570;48.218;16.326;2023-11-19T16:48:47;6.40;99.90
49679;DHT22;35570;48.218;16.326;2023-11-19T16:51:16;6.30;99.90
49679;DHT22;35570;48.218;16.326;2023-11-19T16:53:46;6.40;99.90
49679;DHT22;35570;48.218;16.326;2023-11-19T16:56:15;6.30;99.90
49679;DHT22;35570;48.218;16.326;2023-11-19T16:58:42;6.40;99.90
49679;DHT22;35570;48.218;16.326;2023-11-19T17:01:09;6.30;99.90
49679;DHT22;35570;48.218;16.326;2023-11-19T17:03:36;6.30;99.90
49679;DHT22;35570;48.218;16.326;2023-11-19T17:06:03;6.20;99.90
49679;DHT22;35570;48.218;16.326;2023-11-19T17:08:29;6.20;99.90
49679;DHT22;35570;48.218;16.326;2023-11-19T17:11:01;6.30;99.90
49679;DHT22;35570;48.218;16.326;2023-11-19T17:13:27;6.20;99.90
49679;DHT22;35570;48.218;16.326;2023-11-19T17:15:54;6.20;99.90
49679;DHT22;35570;48.218;16.326;2023-11-19T17:18:20;4.40;99.90
49679;DHT22;35570;48.218;16.326;2023-11-19T17:20:46;6.20;99.90
49679;DHT22;35570;48.218;16.326;2023-11-19T17:23:12;6.20;99.90
49679;DHT22;35570;48.218;16.326;2023-11-19T17:25:38;6.40;99.90
49679;DHT22;35570;48.218;16.326;2023-11-19T17:28:05;6.60;99.90
49679;DHT22;35570;48.218;16.326;2023-11-19T17:30:33;6.20;99.90
49679;DHT22;35570;48.218;16.326;2023-11-19T17:33:00;6.20;99.90
49679;DHT22;35570;48.218;16.326;2023-11-19T17:35:26;6.00;99.90
49679;DHT22;35570;48.218;16.326;2023-11-19T17:37:52;6.00;99.90
49679;DHT22;35570;48.218;16.326;2023-11-19T17:40:18;6.00;99.90
49679;DHT22;35570;48.218;16.326;2023-11-19T17:42:44;6.10;99.90
49679;DHT22;35570;48.218;16.326;2023-11-19T17:45:10;6.10;99.90
49679;DHT22;35570;48.218;16.326;2023-11-19T17:47:36;7.10;99.90
49679;DHT22;35570;48.218;16.326;2023-11-19T17:50:02;6.00;99.90
49679;DHT22;35570;48.218;16.326;2023-11-19T17:52:28;4.90;99.90
49679;DHT22;35570;48.218;16.326;2023-11-19T17:54:55;5.90;99.90
49679;DHT22;35570;48.218;16.326;2023-11-19T17:57:21;6.00;99.90
49679;DHT22;35570;48.218;16.326;2023-11-19T17:59:47;6.00;99.90
49679;DHT22;35570;48.218;16.326;2023-11-19T18:02:15;5.90;99.90
49679;DHT22;35570;48.218;16.326;2023-11-19T18:04:45;6.00;99.90
49679;DHT22;35570;48.218;16.326;2023-11-19T18:09:49;6.10;99.90
49679;DHT22;35570;48.218;16.326;2023-11-19T18:14:50;6.00;99.90
49679;DHT22;35570;48.218;16.326;2023-11-19T18:17:16;5.90;99.90
49679;DHT22;35570;48.218;16.326;2023-11-19T18:19:42;5.70;99.90
49679;DHT22;35570;48.218;16.326;2023-11-19T18:22:08;7.10;99.90
49679;DHT22;35570;48.218;16.326;2023-11-19T18:24:34;5.80;99.90
49679;DHT22;35570;48.218;16.326;2023-11-19T18:27:01;5.80;99.90
49679;DHT22;35570;48.218;16.326;2023-11-19T18:29:29;5.90;99.90
49679;DHT22;35570;48.218;16.326;2023-11-19T18:31:55;5.80;99.90
49679;DHT22;35570;48.218;16.326;2023-11-19T18:34:22;5.50;99.90
49679;DHT22;35570;48.218;16.326;2023-11-19T18:36:50;5.90;99.90
49679;DHT22;35570;48.218;16.326;2023-11-19T18:39:17;5.90;99.90
49679;DHT22;35570;48.218;16.326;2023-11-19T18:41:43;5.90;99.90
49679;DHT22;35570;48.218;16.326;2023-11-19T18:44:10;5.90;99.90
49679;DHT22;35570;48.218;16.326;2023-11-19T18:46:39;6.00;99.90
49679;DHT22;35570;48.218;16.326;2023-11-19T18:49:06;6.00;99.90
49679;DHT22;35570;48.218;16.326;2023-11-19T18:51:35;6.00;99.90
49679;DHT22;35570;48.218;16.326;2023-11-19T18:54:02;5.70;99.90
49679;DHT22;35570;48.218;16.326;2023-11-19T18:56:29;6.10;99.90
49679;DHT22;35570;48.218;16.326;2023-11-19T18:58:56;6.10;99.90
49679;DHT22;35570;48.218;16.326;2023-11-19T19:01:23;6.20;99.90
49679;DHT22;35570;48.218;16.326;2023-11-19T19:03:52;6.60;99.90
49679;DHT22;35570;48.218;16.326;2023-11-19T19:06:18;6.20;99.90
49679;DHT22;35570;48.218;16.326;2023-11-19T19:08:46;6.10;99.90
49679;DHT22;35570;48.218;16.326;2023-11-19T19:11:16;6.20;99.90
49679;DHT22;35570;48.218;16.326;2023-11-19T19:13:45;6.30;99.90
49679;DHT22;35570;48.218;16.326;2023-11-19T19:16:12;6.20;99.90
49679;DHT22;35570;48.218;16.326;2023-11-19T19:21:14;6.30;99.90
49679;DHT22;35570;48.218;16.326;2023-11-19T19:23:41;6.30;99.90
49679;DHT22;35570;48.218;16.326;2023-11-19T19:26:09;6.40;99.90
49679;DHT22;35570;48.218;16.326;2023-11-19T19:28:36;6.30;99.90